Huvudsida
METAR-TAF:

METAR-TAF

Flygplatser :

Mardin, Turkiet

latitud: 37-13-58N, longitud: 40-38-26E, höjd: 527 m

Aktuellt väderrapport

Denna rapport gjordes för 45 minuter sedan, klockan 09:50 UTC
Vind 6 kt varierande vindriktning
Temperatur 41°C
Fuktighet 11%
Tryck 1001 hPa
Sikt 10 km eller mer
Inga moln under 1 500 m eller inga cumulonimbus

METAR: LTCR 220950Z VRB06KT CAVOK 41/05 Q1001

Tid: 13:35 (10:35 UTC)

Väderprognos

Denna rapport gjordes för 2 timmar och 55 minuter sedan, klockan 07:40 UTC
Prognos gäller från 22 kl. 09 UTC till 22 kl. 18 UTC
Vind 2 kt varierande vindriktning
Sikt 10 km eller mer
Inga moln under 1 500 m eller inga cumulonimbus
Blir
från 22 kl. 10 UTC till 22 kl. 12 UTC
Vind 12 kt från väst/sydväst

TAF: LTCR 220740Z 2209/2218 VRB02KT CAVOK BECMG 2210/2212 24012KT

Aktuella väderrapporter och prognoser från 4000 flygplatser (METAR- och TAF-rapporter).

De tillgängliga stationerna syns som gula och röda prickar på kartan.

För musen över prickarna för att se namnen på stationerna.

Klicka sedan för att få väderrapporter och prognoser.

För att ändra kartan: Klicka på de gröna knapparna med ett svart kors på för att zooma in; den gröna knappen med ett streck på för att zooma ut; eller på de gröna pilarna för angränsande kartor.


METAR-TAF: